RCH3811 ETAR-EGUN
Flight info
| Callsign | RCH3811 |
|---|---|
| Flight time | 1h 6m |
| Altitude | 34000 |
| Route | BOLK2L LIMGO N852 DIK M624 NIK KOZUF IMPOH SASKI L608 SUMUM Y6 IDESI P49 LAPRA |
| Aircraft | K35R/H-SDE1E2E3FGHIJ2J3J4J5M1RWXY/LB1D1 |
Departure
| Time | 2026-05-07 14:51 |
|---|---|
| Airport | Ramstein Air Base (ETAR) |
Arrival
| Time | 2026-05-07 15:58 |
|---|---|
| Airport | RAF Mildenhall (EGUN) |
| Time | Latitude | Longitude | Altitude | Speed | Heading |
|---|---|---|---|---|---|
| 2026-05-07 14:24 | 49.44096 | 7.59054 | 783 ft | 0 kts | 174° |
| 2026-05-07 14:46 | 49.44086 | 7.59056 | 784 ft | 5 kts | 174° |
| 2026-05-07 14:46 | 49.44026 | 7.59070 | 784 ft | 7 kts | 185° |
| 2026-05-07 14:46 | 49.43990 | 7.58997 | 783 ft | 12 kts | 256° |
| 2026-05-07 14:47 | 49.43980 | 7.58819 | 783 ft | 21 kts | 265° |
| 2026-05-07 14:47 | 49.43963 | 7.58574 | 782 ft | 24 kts | 265° |
| 2026-05-07 14:47 | 49.43955 | 7.58340 | 780 ft | 16 kts | 263° |
| 2026-05-07 14:47 | 49.43910 | 7.58282 | 780 ft | 9 kts | 179° |
| 2026-05-07 14:48 | 49.43845 | 7.58344 | 781 ft | 15 kts | 149° |
| 2026-05-07 14:48 | 49.43722 | 7.58371 | 781 ft | 22 kts | 177° |
| 2026-05-07 14:48 | 49.43550 | 7.58387 | 780 ft | 26 kts | 176° |
| 2026-05-07 14:48 | 49.43436 | 7.58398 | 779 ft | 0 kts | 176° |
| 2026-05-07 14:50 | 49.43427 | 7.58399 | 779 ft | 5 kts | 176° |
| 2026-05-07 14:50 | 49.43351 | 7.58406 | 776 ft | 11 kts | 177° |
| 2026-05-07 14:50 | 49.43312 | 7.58436 | 776 ft | 5 kts | 120° |
| 2026-05-07 14:51 | 49.43311 | 7.58507 | 777 ft | 8 kts | 83° |
| 2026-05-07 14:51 | 49.43347 | 7.58923 | 780 ft | 93 kts | 82° |
| 2026-05-07 14:51 | 49.43477 | 7.60487 | 967 ft | 180 kts | 82° |
| 2026-05-07 14:51 | 49.43642 | 7.62296 | 2648 ft | 172 kts | 79° |
| 2026-05-07 14:52 | 49.43856 | 7.64115 | 4288 ft | 176 kts | 79° |
| 2026-05-07 14:52 | 49.44105 | 7.66169 | 5146 ft | 221 kts | 72° |
| 2026-05-07 14:52 | 49.44899 | 7.68452 | 5464 ft | 264 kts | 54° |
| 2026-05-07 14:52 | 49.45995 | 7.70735 | 6923 ft | 267 kts | 52° |
| 2026-05-07 14:53 | 49.47120 | 7.73055 | 8425 ft | 276 kts | 52° |
| 2026-05-07 14:53 | 49.48279 | 7.75473 | 9885 ft | 285 kts | 52° |
| 2026-05-07 14:53 | 49.49513 | 7.78071 | 10564 ft | 325 kts | 53° |
| 2026-05-07 14:53 | 49.50920 | 7.81072 | 11058 ft | 359 kts | 53° |
| 2026-05-07 14:54 | 49.52292 | 7.84335 | 12443 ft | 366 kts | 61° |
| 2026-05-07 14:54 | 49.53180 | 7.88032 | 13821 ft | 373 kts | 79° |
| 2026-05-07 14:54 | 49.53217 | 7.92046 | 14997 ft | 381 kts | 100° |
| 2026-05-07 14:54 | 49.52287 | 7.95885 | 16088 ft | 388 kts | 122° |
| 2026-05-07 14:55 | 49.50503 | 7.99013 | 17182 ft | 394 kts | 142° |
| 2026-05-07 14:55 | 49.48183 | 8.01300 | 18205 ft | 400 kts | 153° |
| 2026-05-07 14:55 | 49.45668 | 8.03232 | 19078 ft | 406 kts | 155° |
| 2026-05-07 14:55 | 49.43078 | 8.05021 | 20008 ft | 410 kts | 160° |
| 2026-05-07 14:56 | 49.40342 | 8.06314 | 20901 ft | 413 kts | 170° |
| 2026-05-07 14:56 | 49.37473 | 8.06697 | 21824 ft | 415 kts | 184° |
| 2026-05-07 14:56 | 49.34669 | 8.05966 | 22771 ft | 417 kts | 199° |
| 2026-05-07 14:56 | 49.32031 | 8.04091 | 23718 ft | 419 kts | 214° |
| 2026-05-07 14:57 | 49.29804 | 8.01220 | 24553 ft | 421 kts | 229° |
| 2026-05-07 14:57 | 49.28119 | 7.97551 | 25401 ft | 425 kts | 244° |
| 2026-05-07 14:57 | 49.27083 | 7.93303 | 26256 ft | 429 kts | 257° |
| 2026-05-07 14:57 | 49.26553 | 7.88778 | 27101 ft | 434 kts | 263° |
| 2026-05-07 14:58 | 49.26230 | 7.84146 | 27939 ft | 440 kts | 265° |
| 2026-05-07 14:58 | 49.25952 | 7.79460 | 28775 ft | 446 kts | 265° |
| 2026-05-07 14:58 | 49.25650 | 7.74684 | 29592 ft | 452 kts | 265° |
| 2026-05-07 14:58 | 49.25308 | 7.69877 | 30337 ft | 458 kts | 264° |
| 2026-05-07 14:59 | 49.24929 | 7.65014 | 30965 ft | 462 kts | 264° |
| 2026-05-07 14:59 | 49.24526 | 7.60137 | 31723 ft | 462 kts | 263° |
| 2026-05-07 14:59 | 49.24112 | 7.55264 | 32522 ft | 461 kts | 263° |
| 2026-05-07 14:59 | 49.23809 | 7.50367 | 33001 ft | 461 kts | 268° |
| 2026-05-07 15:00 | 49.23882 | 7.45475 | 33410 ft | 459 kts | 276° |
| 2026-05-07 15:00 | 49.24466 | 7.40675 | 33830 ft | 458 kts | 285° |
| 2026-05-07 15:00 | 49.25559 | 7.36100 | 34016 ft | 458 kts | 295° |
| 2026-05-07 15:00 | 49.27074 | 7.31927 | 34033 ft | 435 kts | 302° |
| 2026-05-07 15:01 | 49.28752 | 7.28180 | 34042 ft | 423 kts | 305° |
| 2026-05-07 15:01 | 49.30483 | 7.24561 | 34042 ft | 419 kts | 306° |
| 2026-05-07 15:01 | 49.33908 | 7.17341 | 34048 ft | 417 kts | 304° |
| 2026-05-07 15:02 | 49.37348 | 7.10254 | 34045 ft | 417 kts | 311° |
| 2026-05-07 15:02 | 49.39464 | 7.07210 | 34041 ft | 418 kts | 322° |
| 2026-05-07 15:02 | 49.41967 | 7.04925 | 34053 ft | 420 kts | 335° |
| 2026-05-07 15:03 | 49.47555 | 7.02207 | 34044 ft | 421 kts | 339° |
| 2026-05-07 15:03 | 49.50198 | 7.00309 | 34043 ft | 419 kts | 327° |
| 2026-05-07 15:03 | 49.52473 | 6.97542 | 34042 ft | 416 kts | 313° |
| 2026-05-07 15:04 | 49.54253 | 6.94042 | 34038 ft | 416 kts | 301° |
| 2026-05-07 15:04 | 49.55491 | 6.90033 | 34040 ft | 416 kts | 289° |
| 2026-05-07 15:04 | 49.56171 | 6.85720 | 34040 ft | 416 kts | 278° |
| 2026-05-07 15:04 | 49.56372 | 6.81257 | 34039 ft | 417 kts | 271° |
| 2026-05-07 15:05 | 49.56283 | 6.72328 | 34037 ft | 417 kts | 269° |
| 2026-05-07 15:05 | 49.56175 | 6.63432 | 34044 ft | 416 kts | 270° |
| 2026-05-07 15:06 | 49.56190 | 6.54513 | 34048 ft | 416 kts | 274° |
| 2026-05-07 15:06 | 49.57348 | 6.45842 | 34050 ft | 414 kts | 291° |
| 2026-05-07 15:07 | 49.59956 | 6.37930 | 34042 ft | 415 kts | 299° |
| 2026-05-07 15:07 | 49.63079 | 6.30452 | 34043 ft | 416 kts | 309° |
| 2026-05-07 15:08 | 49.65163 | 6.27352 | 34042 ft | 418 kts | 322° |
| 2026-05-07 15:08 | 49.67663 | 6.25036 | 34053 ft | 420 kts | 332° |
| 2026-05-07 15:08 | 49.73057 | 6.21474 | 34045 ft | 422 kts | 336° |
| 2026-05-07 15:09 | 49.78497 | 6.18043 | 34056 ft | 422 kts | 335° |
| 2026-05-07 15:09 | 49.83867 | 6.14479 | 34045 ft | 422 kts | 334° |
| 2026-05-07 15:10 | 49.86454 | 6.12342 | 34041 ft | 420 kts | 323° |
| 2026-05-07 15:10 | 49.88742 | 6.09546 | 34041 ft | 418 kts | 316° |
| 2026-05-07 15:10 | 49.92914 | 6.03260 | 34043 ft | 418 kts | 313° |
| 2026-05-07 15:11 | 49.97028 | 5.96872 | 34049 ft | 418 kts | 314° |
| 2026-05-07 15:11 | 50.01192 | 5.90562 | 34055 ft | 418 kts | 314° |
| 2026-05-07 15:12 | 50.05382 | 5.84280 | 34054 ft | 418 kts | 314° |
| 2026-05-07 15:12 | 50.09573 | 5.77992 | 34056 ft | 418 kts | 314° |
| 2026-05-07 15:13 | 50.13057 | 5.72757 | 34061 ft | 418 kts | 314° |
| 2026-05-07 15:13 | 50.17917 | 5.65434 | 34061 ft | 418 kts | 314° |
| 2026-05-07 15:14 | 50.21388 | 5.60192 | 34058 ft | 418 kts | 314° |
| 2026-05-07 15:14 | 50.25571 | 5.53864 | 34063 ft | 418 kts | 314° |
| 2026-05-07 15:15 | 50.29747 | 5.47530 | 34063 ft | 418 kts | 314° |
| 2026-05-07 15:15 | 50.33914 | 5.41190 | 34064 ft | 418 kts | 314° |
| 2026-05-07 15:16 | 50.38086 | 5.34833 | 34069 ft | 418 kts | 314° |
| 2026-05-07 15:16 | 50.42262 | 5.28453 | 34069 ft | 419 kts | 314° |
| 2026-05-07 15:17 | 50.46439 | 5.22058 | 34072 ft | 419 kts | 313° |
| 2026-05-07 15:17 | 50.50579 | 5.15697 | 34069 ft | 420 kts | 313° |
| 2026-05-07 15:18 | 50.54750 | 5.09265 | 34071 ft | 419 kts | 313° |
| 2026-05-07 15:18 | 50.58916 | 5.02834 | 34072 ft | 420 kts | 313° |
| 2026-05-07 15:19 | 50.63080 | 4.96384 | 34074 ft | 420 kts | 313° |
| 2026-05-07 15:19 | 50.67236 | 4.89908 | 34074 ft | 420 kts | 313° |
| 2026-05-07 15:20 | 50.71373 | 4.83408 | 34074 ft | 420 kts | 313° |
| 2026-05-07 15:20 | 50.75529 | 4.76895 | 34071 ft | 420 kts | 313° |
| 2026-05-07 15:21 | 50.79657 | 4.70408 | 34077 ft | 421 kts | 313° |
| 2026-05-07 15:21 | 50.81775 | 4.67077 | 34081 ft | 438 kts | 313° |
| 2026-05-07 15:21 | 50.83961 | 4.63633 | 34075 ft | 445 kts | 313° |
| 2026-05-07 15:22 | 50.88363 | 4.56699 | 34075 ft | 447 kts | 314° |
| 2026-05-07 15:22 | 50.92990 | 4.50056 | 34075 ft | 449 kts | 317° |
| 2026-05-07 15:23 | 50.97767 | 4.43655 | 34081 ft | 449 kts | 318° |
| 2026-05-07 15:23 | 51.02525 | 4.37282 | 34078 ft | 450 kts | 317° |
| 2026-05-07 15:24 | 51.07297 | 4.30836 | 34070 ft | 450 kts | 317° |
| 2026-05-07 15:24 | 51.12066 | 4.24359 | 34086 ft | 450 kts | 317° |
| 2026-05-07 15:25 | 51.16679 | 4.17665 | 34066 ft | 448 kts | 308° |
| 2026-05-07 15:25 | 51.20079 | 4.09382 | 34066 ft | 446 kts | 297° |
| 2026-05-07 15:26 | 51.23014 | 4.00677 | 34069 ft | 446 kts | 297° |
| 2026-05-07 15:26 | 51.25997 | 3.91982 | 34059 ft | 446 kts | 297° |
| 2026-05-07 15:27 | 51.29035 | 3.83348 | 34061 ft | 447 kts | 298° |
| 2026-05-07 15:27 | 51.32099 | 3.74687 | 34066 ft | 447 kts | 298° |
| 2026-05-07 15:28 | 51.35093 | 3.65975 | 34064 ft | 446 kts | 293° |
| 2026-05-07 15:28 | 51.37104 | 3.56616 | 34069 ft | 444 kts | 284° |
| 2026-05-07 15:29 | 51.38672 | 3.47137 | 34071 ft | 444 kts | 283° |
| 2026-05-07 15:29 | 51.40268 | 3.37566 | 34075 ft | 444 kts | 284° |
| 2026-05-07 15:30 | 51.41909 | 3.28011 | 34073 ft | 445 kts | 284° |
| 2026-05-07 15:30 | 51.43563 | 3.18455 | 34076 ft | 445 kts | 284° |
| 2026-05-07 15:31 | 51.45198 | 3.08896 | 34074 ft | 445 kts | 283° |
| 2026-05-07 15:31 | 51.46769 | 2.99356 | 34078 ft | 444 kts | 283° |
| 2026-05-07 15:32 | 51.48336 | 2.89780 | 34078 ft | 444 kts | 283° |
| 2026-05-07 15:32 | 51.49905 | 2.80197 | 34079 ft | 444 kts | 283° |
| 2026-05-07 15:33 | 51.51476 | 2.70581 | 34079 ft | 444 kts | 283° |
| 2026-05-07 15:33 | 51.53035 | 2.60988 | 34083 ft | 444 kts | 283° |
| 2026-05-07 15:34 | 51.54610 | 2.51369 | 34078 ft | 445 kts | 285° |
| 2026-05-07 15:34 | 51.56580 | 2.41922 | 34083 ft | 446 kts | 288° |
| 2026-05-07 15:35 | 51.58987 | 2.32728 | 34080 ft | 448 kts | 295° |
| 2026-05-07 15:35 | 51.61979 | 2.23903 | 34079 ft | 449 kts | 298° |
| 2026-05-07 15:36 | 51.63494 | 2.19569 | 33683 ft | 450 kts | 298° |
| 2026-05-07 15:36 | 51.65022 | 2.15174 | 33167 ft | 450 kts | 298° |
| 2026-05-07 15:36 | 51.66684 | 2.10823 | 32547 ft | 452 kts | 303° |
| 2026-05-07 15:36 | 51.68728 | 2.06957 | 31961 ft | 456 kts | 315° |
| 2026-05-07 15:37 | 51.71242 | 2.03843 | 31389 ft | 459 kts | 326° |
| 2026-05-07 15:37 | 51.74038 | 2.01298 | 30811 ft | 462 kts | 331° |
| 2026-05-07 15:37 | 51.76925 | 1.98993 | 30238 ft | 463 kts | 333° |
| 2026-05-07 15:37 | 51.79789 | 1.96759 | 29584 ft | 465 kts | 333° |
| 2026-05-07 15:38 | 51.82698 | 1.94440 | 28924 ft | 466 kts | 332° |
| 2026-05-07 15:38 | 51.85590 | 1.92063 | 28306 ft | 464 kts | 331° |
| 2026-05-07 15:38 | 51.88358 | 1.89422 | 27687 ft | 459 kts | 323° |
| 2026-05-07 15:38 | 51.90724 | 1.86041 | 27033 ft | 452 kts | 310° |
| 2026-05-07 15:39 | 51.92547 | 1.81938 | 26411 ft | 446 kts | 299° |
| 2026-05-07 15:39 | 51.93991 | 1.77516 | 25784 ft | 442 kts | 295° |
| 2026-05-07 15:39 | 51.95303 | 1.73028 | 25166 ft | 438 kts | 294° |
| 2026-05-07 15:39 | 51.96600 | 1.68578 | 24552 ft | 434 kts | 294° |
| 2026-05-07 15:40 | 51.97922 | 1.64197 | 23935 ft | 430 kts | 295° |
| 2026-05-07 15:40 | 51.99268 | 1.59891 | 23285 ft | 426 kts | 296° |
| 2026-05-07 15:40 | 52.00630 | 1.55633 | 22623 ft | 422 kts | 296° |
| 2026-05-07 15:40 | 52.01985 | 1.51441 | 22008 ft | 418 kts | 296° |
| 2026-05-07 15:41 | 52.03339 | 1.47272 | 21410 ft | 415 kts | 296° |
| 2026-05-07 15:41 | 52.04683 | 1.43141 | 20824 ft | 412 kts | 296° |
| 2026-05-07 15:41 | 52.06015 | 1.39046 | 20245 ft | 408 kts | 296° |
| 2026-05-07 15:41 | 52.07332 | 1.34990 | 19568 ft | 400 kts | 296° |
| 2026-05-07 15:42 | 52.08609 | 1.31046 | 18385 ft | 398 kts | 296° |
| 2026-05-07 15:42 | 52.09904 | 1.27035 | 17165 ft | 392 kts | 296° |
| 2026-05-07 15:42 | 52.11145 | 1.23186 | 16032 ft | 387 kts | 296° |
| 2026-05-07 15:42 | 52.12382 | 1.19325 | 14909 ft | 382 kts | 295° |
| 2026-05-07 15:43 | 52.13536 | 1.15459 | 13839 ft | 378 kts | 294° |
| 2026-05-07 15:43 | 52.14634 | 1.11593 | 12714 ft | 373 kts | 293° |
| 2026-05-07 15:43 | 52.15699 | 1.07776 | 11698 ft | 367 kts | 293° |
| 2026-05-07 15:43 | 52.16745 | 1.04013 | 10783 ft | 361 kts | 293° |
| 2026-05-07 15:44 | 52.17741 | 1.00446 | 10654 ft | 333 kts | 293° |
| 2026-05-07 15:44 | 52.18670 | 0.97123 | 10519 ft | 311 kts | 293° |
| 2026-05-07 15:44 | 52.19543 | 0.94012 | 10402 ft | 293 kts | 293° |
| 2026-05-07 15:44 | 52.20373 | 0.91042 | 10050 ft | 284 kts | 292° |
| 2026-05-07 15:45 | 52.21163 | 0.88107 | 9506 ft | 281 kts | 292° |
| 2026-05-07 15:45 | 52.21925 | 0.85192 | 8972 ft | 277 kts | 291° |
| 2026-05-07 15:45 | 52.22667 | 0.82284 | 8422 ft | 276 kts | 291° |
| 2026-05-07 15:45 | 52.23376 | 0.79391 | 8038 ft | 275 kts | 286° |
| 2026-05-07 15:46 | 52.23845 | 0.73330 | 7302 ft | 265 kts | 271° |
| 2026-05-07 15:46 | 52.23916 | 0.70347 | 7054 ft | 267 kts | 271° |
| 2026-05-07 15:46 | 52.23983 | 0.67324 | 6802 ft | 266 kts | 271° |
| 2026-05-07 15:47 | 52.24058 | 0.64300 | 6565 ft | 265 kts | 271° |
| 2026-05-07 15:47 | 52.24192 | 0.61306 | 6290 ft | 265 kts | 277° |
| 2026-05-07 15:47 | 52.24538 | 0.58362 | 6039 ft | 265 kts | 281° |
| 2026-05-07 15:47 | 52.24932 | 0.55436 | 5786 ft | 263 kts | 281° |
| 2026-05-07 15:48 | 52.25330 | 0.52508 | 5516 ft | 264 kts | 281° |
| 2026-05-07 15:48 | 52.25731 | 0.49588 | 5259 ft | 263 kts | 281° |
| 2026-05-07 15:48 | 52.26127 | 0.46679 | 5002 ft | 262 kts | 281° |
| 2026-05-07 15:48 | 52.26520 | 0.43775 | 4745 ft | 262 kts | 281° |
| 2026-05-07 15:49 | 52.26915 | 0.40876 | 4478 ft | 261 kts | 281° |
| 2026-05-07 15:49 | 52.27311 | 0.37991 | 4219 ft | 260 kts | 281° |
| 2026-05-07 15:49 | 52.27711 | 0.35102 | 3956 ft | 260 kts | 281° |
| 2026-05-07 15:49 | 52.28109 | 0.32222 | 3699 ft | 259 kts | 281° |
| 2026-05-07 15:50 | 52.28496 | 0.29358 | 3469 ft | 257 kts | 281° |
| 2026-05-07 15:50 | 52.28889 | 0.26499 | 3207 ft | 257 kts | 281° |
| 2026-05-07 15:50 | 52.29281 | 0.23659 | 3035 ft | 256 kts | 281° |
| 2026-05-07 15:50 | 52.29671 | 0.20826 | 3010 ft | 250 kts | 281° |
| 2026-05-07 15:51 | 52.30033 | 0.18239 | 2998 ft | 227 kts | 281° |
| 2026-05-07 15:51 | 52.30389 | 0.15771 | 2995 ft | 221 kts | 284° |
| 2026-05-07 15:51 | 52.31169 | 0.13618 | 2949 ft | 224 kts | 315° |
| 2026-05-07 15:51 | 52.32524 | 0.12433 | 2834 ft | 224 kts | 348° |
| 2026-05-07 15:52 | 52.34067 | 0.12542 | 2707 ft | 223 kts | 17° |
| 2026-05-07 15:52 | 52.35521 | 0.13412 | 2603 ft | 222 kts | 23° |
| 2026-05-07 15:52 | 52.36958 | 0.14384 | 2598 ft | 223 kts | 23° |
| 2026-05-07 15:52 | 52.38338 | 0.15512 | 2597 ft | 221 kts | 35° |
| 2026-05-07 15:53 | 52.39422 | 0.17219 | 2588 ft | 207 kts | 58° |
| 2026-05-07 15:53 | 52.39965 | 0.19294 | 2568 ft | 195 kts | 81° |
| 2026-05-07 15:53 | 52.39951 | 0.21453 | 2602 ft | 184 kts | 99° |
| 2026-05-07 15:53 | 52.39761 | 0.23518 | 2614 ft | 182 kts | 101° |
| 2026-05-07 15:54 | 52.39533 | 0.25551 | 2593 ft | 182 kts | 104° |
| 2026-05-07 15:54 | 52.39244 | 0.27567 | 2367 ft | 179 kts | 106° |
| 2026-05-07 15:54 | 52.38956 | 0.29539 | 2123 ft | 170 kts | 105° |
| 2026-05-07 15:54 | 52.38708 | 0.31273 | 1859 ft | 146 kts | 106° |
| 2026-05-07 15:55 | 52.38481 | 0.32829 | 1689 ft | 139 kts | 106° |
| 2026-05-07 15:55 | 52.38262 | 0.34344 | 1559 ft | 138 kts | 106° |
| 2026-05-07 15:55 | 52.38038 | 0.35888 | 1367 ft | 137 kts | 107° |
| 2026-05-07 15:55 | 52.37820 | 0.37386 | 1187 ft | 137 kts | 106° |
| 2026-05-07 15:56 | 52.37600 | 0.38909 | 1030 ft | 138 kts | 107° |
| 2026-05-07 15:56 | 52.37379 | 0.40436 | 826 ft | 138 kts | 106° |
| 2026-05-07 15:56 | 52.37158 | 0.41973 | 651 ft | 140 kts | 105° |
| 2026-05-07 15:56 | 52.36935 | 0.43526 | 439 ft | 141 kts | 105° |
| 2026-05-07 15:57 | 52.36711 | 0.45090 | 273 ft | 142 kts | 105° |
| 2026-05-07 15:57 | 52.36483 | 0.46664 | 93 ft | 143 kts | 106° |
| 2026-05-07 15:57 | 52.36271 | 0.48095 | 51 ft | 106 kts | 103° |
| 2026-05-07 15:57 | 52.36148 | 0.48957 | 51 ft | 57 kts | 103° |
| 2026-05-07 15:58 | 52.36063 | 0.49544 | 49 ft | 47 kts | 103° |
| 2026-05-07 15:58 | 52.35991 | 0.50044 | 47 ft | 40 kts | 103° |
| 2026-05-07 15:58 | 52.35935 | 0.50431 | 46 ft | 27 kts | 103° |
| 2026-05-07 15:58 | 52.35916 | 0.50556 | 50 ft | 10 kts | 111° |
| 2026-05-07 15:59 | 52.35859 | 0.50609 | 50 ft | 13 kts | 178° |
| 2026-05-07 15:59 | 52.35744 | 0.50552 | 48 ft | 19 kts | 212° |
| 2026-05-07 15:59 | 52.35692 | 0.50394 | 50 ft | 15 kts | 269° |
| 2026-05-07 15:59 | 52.35721 | 0.50159 | 50 ft | 17 kts | 283° |
| 2026-05-07 16:00 | 52.35740 | 0.50031 | 50 ft | 17 kts | 284° |
| 2026-05-07 16:00 | 52.35769 | 0.49835 | 50 ft | 18 kts | 283° |
| 2026-05-07 16:00 | 52.35799 | 0.49627 | 48 ft | 19 kts | 284° |
| 2026-05-07 16:00 | 52.35831 | 0.49416 | 50 ft | 17 kts | 284° |
| 2026-05-07 16:01 | 52.35827 | 0.49249 | 50 ft | 15 kts | 254° |
| 2026-05-07 16:01 | 52.35798 | 0.49083 | 50 ft | 16 kts | 254° |
| 2026-05-07 16:01 | 52.35768 | 0.48902 | 50 ft | 17 kts | 255° |
| 2026-05-07 16:01 | 52.35735 | 0.48710 | 48 ft | 18 kts | 254° |
| 2026-05-07 16:02 | 52.35701 | 0.48515 | 50 ft | 14 kts | 254° |
| 2026-05-07 16:02 | 52.35702 | 0.48430 | 50 ft | 9 kts | 288° |
| 2026-05-07 16:02 | 52.35729 | 0.48338 | 48 ft | 6 kts | 283° |
| 2026-05-07 16:02 | 52.35722 | 0.48294 | 47 ft | 3 kts | 238° |
| 2026-05-07 16:03 | 52.35710 | 0.48280 | 49 ft | 0 kts | 213° |